sensor_id;sensor_type;location;lat;lon;timestamp;temperature;humidity
19906;DHT22;10115;50.906;4.438;2024-01-15T00:01:56;1.70;99.90
19906;DHT22;10115;50.906;4.438;2024-01-15T00:04:22;1.70;99.90
19906;DHT22;10115;50.906;4.438;2024-01-15T00:06:48;1.70;99.90
19906;DHT22;10115;50.906;4.438;2024-01-15T00:09:14;1.70;99.90
19906;DHT22;10115;50.906;4.438;2024-01-15T00:11:40;1.70;99.90
19906;DHT22;10115;50.906;4.438;2024-01-15T00:14:06;1.70;99.90
19906;DHT22;10115;50.906;4.438;2024-01-15T00:16:31;1.70;99.90
19906;DHT22;10115;50.906;4.438;2024-01-15T00:18:57;1.70;99.90
19906;DHT22;10115;50.906;4.438;2024-01-15T00:21:22;1.70;99.90
19906;DHT22;10115;50.906;4.438;2024-01-15T00:23:48;1.70;99.90
19906;DHT22;10115;50.906;4.438;2024-01-15T00:26:14;1.70;99.90
19906;DHT22;10115;50.906;4.438;2024-01-15T00:28:40;1.60;99.90
19906;DHT22;10115;50.906;4.438;2024-01-15T00:31:06;1.70;99.90
19906;DHT22;10115;50.906;4.438;2024-01-15T00:33:31;1.60;99.90
19906;DHT22;10115;50.906;4.438;2024-01-15T00:35:57;1.70;99.90
19906;DHT22;10115;50.906;4.438;2024-01-15T00:38:23;1.70;99.90
19906;DHT22;10115;50.906;4.438;2024-01-15T00:40:48;1.70;99.90
19906;DHT22;10115;50.906;4.438;2024-01-15T00:43:15;1.80;99.90
19906;DHT22;10115;50.906;4.438;2024-01-15T00:45:43;1.80;99.90
19906;DHT22;10115;50.906;4.438;2024-01-15T00:48:09;1.80;99.90
19906;DHT22;10115;50.906;4.438;2024-01-15T00:50:35;1.80;99.90
19906;DHT22;10115;50.906;4.438;2024-01-15T00:53:00;1.80;99.90
19906;DHT22;10115;50.906;4.438;2024-01-15T00:55:28;1.80;99.90
19906;DHT22;10115;50.906;4.438;2024-01-15T00:57:54;1.90;99.90
19906;DHT22;10115;50.906;4.438;2024-01-15T01:00:19;1.80;99.90
19906;DHT22;10115;50.906;4.438;2024-01-15T01:02:45;1.90;99.90
19906;DHT22;10115;50.906;4.438;2024-01-15T01:05:11;1.80;99.90
19906;DHT22;10115;50.906;4.438;2024-01-15T01:07:36;1.90;99.90
19906;DHT22;10115;50.906;4.438;2024-01-15T01:10:02;1.80;99.90
19906;DHT22;10115;50.906;4.438;2024-01-15T01:12:28;1.80;99.90
19906;DHT22;10115;50.906;4.438;2024-01-15T01:14:55;1.80;99.90
19906;DHT22;10115;50.906;4.438;2024-01-15T01:17:21;1.80;99.90
19906;DHT22;10115;50.906;4.438;2024-01-15T01:19:46;1.80;99.90
19906;DHT22;10115;50.906;4.438;2024-01-15T01:22:12;1.70;99.90
19906;DHT22;10115;50.906;4.438;2024-01-15T01:24:37;1.70;99.90
19906;DHT22;10115;50.906;4.438;2024-01-15T01:27:03;1.80;99.90
19906;DHT22;10115;50.906;4.438;2024-01-15T01:29:29;1.70;99.90
19906;DHT22;10115;50.906;4.438;2024-01-15T01:31:55;1.70;99.90
19906;DHT22;10115;50.906;4.438;2024-01-15T01:34:21;1.70;99.90
19906;DHT22;10115;50.906;4.438;2024-01-15T01:36:47;1.70;99.90
19906;DHT22;10115;50.906;4.438;2024-01-15T01:39:13;1.80;99.90
19906;DHT22;10115;50.906;4.438;2024-01-15T01:41:39;1.80;99.90
19906;DHT22;10115;50.906;4.438;2024-01-15T01:44:05;1.80;99.90
19906;DHT22;10115;50.906;4.438;2024-01-15T01:46:31;1.70;99.90
19906;DHT22;10115;50.906;4.438;2024-01-15T01:48:57;1.80;99.90
19906;DHT22;10115;50.906;4.438;2024-01-15T01:51:24;1.80;99.90
19906;DHT22;10115;50.906;4.438;2024-01-15T01:53:50;1.80;99.90
19906;DHT22;10115;50.906;4.438;2024-01-15T01:56:17;1.80;99.90
19906;DHT22;10115;50.906;4.438;2024-01-15T01:58:44;1.80;99.90
19906;DHT22;10115;50.906;4.438;2024-01-15T02:01:11;1.80;99.90
19906;DHT22;10115;50.906;4.438;2024-01-15T02:03:39;1.80;99.90
19906;DHT22;10115;50.906;4.438;2024-01-15T02:06:05;1.80;99.90
19906;DHT22;10115;50.906;4.438;2024-01-15T02:08:31;1.80;99.90
19906;DHT22;10115;50.906;4.438;2024-01-15T02:10:57;1.80;99.90
19906;DHT22;10115;50.906;4.438;2024-01-15T02:13:23;1.90;99.90
19906;DHT22;10115;50.906;4.438;2024-01-15T02:15:49;1.90;99.90
19906;DHT22;10115;50.906;4.438;2024-01-15T02:18:14;1.90;99.90
19906;DHT22;10115;50.906;4.438;2024-01-15T02:20:40;1.90;99.90
19906;DHT22;10115;50.906;4.438;2024-01-15T02:23:15;1.90;99.90
19906;DHT22;10115;50.906;4.438;2024-01-15T02:25:45;1.90;99.90
19906;DHT22;10115;50.906;4.438;2024-01-15T02:28:13;1.90;99.90
19906;DHT22;10115;50.906;4.438;2024-01-15T02:30:40;1.90;99.90
19906;DHT22;10115;50.906;4.438;2024-01-15T02:33:09;1.90;99.90
19906;DHT22;10115;50.906;4.438;2024-01-15T02:35:36;1.90;99.90
19906;DHT22;10115;50.906;4.438;2024-01-15T02:38:05;1.90;99.90
19906;DHT22;10115;50.906;4.438;2024-01-15T02:40:31;1.90;99.90
19906;DHT22;10115;50.906;4.438;2024-01-15T02:42:57;1.90;99.90
19906;DHT22;10115;50.906;4.438;2024-01-15T02:45:23;2.00;99.90
19906;DHT22;10115;50.906;4.438;2024-01-15T02:47:49;2.00;99.90
19906;DHT22;10115;50.906;4.438;2024-01-15T02:50:14;2.00;99.90
19906;DHT22;10115;50.906;4.438;2024-01-15T02:52:41;2.00;99.90
19906;DHT22;10115;50.906;4.438;2024-01-15T02:55:07;2.00;99.90
19906;DHT22;10115;50.906;4.438;2024-01-15T02:57:32;2.00;99.90
19906;DHT22;10115;50.906;4.438;2024-01-15T02:59:58;2.00;99.90
19906;DHT22;10115;50.906;4.438;2024-01-15T03:02:24;2.00;99.90
19906;DHT22;10115;50.906;4.438;2024-01-15T03:04:49;2.00;99.90
19906;DHT22;10115;50.906;4.438;2024-01-15T03:07:15;2.00;99.90
19906;DHT22;10115;50.906;4.438;2024-01-15T03:09:41;2.00;99.90
19906;DHT22;10115;50.906;4.438;2024-01-15T03:12:07;2.00;99.90
19906;DHT22;10115;50.906;4.438;2024-01-15T03:14:32;2.00;99.90
19906;DHT22;10115;50.906;4.438;2024-01-15T03:16:58;2.00;99.90
19906;DHT22;10115;50.906;4.438;2024-01-15T03:19:24;2.10;99.90
19906;DHT22;10115;50.906;4.438;2024-01-15T03:21:49;2.00;99.90
19906;DHT22;10115;50.906;4.438;2024-01-15T03:24:15;1.90;99.90
19906;DHT22;10115;50.906;4.438;2024-01-15T03:26:40;1.90;99.90
19906;DHT22;10115;50.906;4.438;2024-01-15T03:29:07;1.90;99.90
19906;DHT22;10115;50.906;4.438;2024-01-15T03:31:33;1.90;99.90
19906;DHT22;10115;50.906;4.438;2024-01-15T03:33:58;1.90;99.90
19906;DHT22;10115;50.906;4.438;2024-01-15T03:36:24;1.90;99.90
19906;DHT22;10115;50.906;4.438;2024-01-15T03:38:50;1.90;99.90
19906;DHT22;10115;50.906;4.438;2024-01-15T03:41:15;1.90;99.90
19906;DHT22;10115;50.906;4.438;2024-01-15T03:43:41;2.00;99.90
19906;DHT22;10115;50.906;4.438;2024-01-15T03:46:07;2.00;99.90
19906;DHT22;10115;50.906;4.438;2024-01-15T03:48:33;1.90;99.90
19906;DHT22;10115;50.906;4.438;2024-01-15T03:50:58;1.90;99.90
19906;DHT22;10115;50.906;4.438;2024-01-15T03:53:24;1.90;99.90
19906;DHT22;10115;50.906;4.438;2024-01-15T03:55:50;2.00;99.90
19906;DHT22;10115;50.906;4.438;2024-01-15T03:58:15;2.00;99.90
19906;DHT22;10115;50.906;4.438;2024-01-15T04:00:42;2.00;99.90
19906;DHT22;10115;50.906;4.438;2024-01-15T04:03:08;1.90;99.90
19906;DHT22;10115;50.906;4.438;2024-01-15T04:05:33;1.90;99.90
19906;DHT22;10115;50.906;4.438;2024-01-15T04:07:59;1.80;99.90
19906;DHT22;10115;50.906;4.438;2024-01-15T04:10:25;1.80;99.90
19906;DHT22;10115;50.906;4.438;2024-01-15T04:12:50;1.80;99.90
19906;DHT22;10115;50.906;4.438;2024-01-15T04:15:16;1.80;99.90
19906;DHT22;10115;50.906;4.438;2024-01-15T04:17:41;1.80;99.90
19906;DHT22;10115;50.906;4.438;2024-01-15T04:20:07;1.80;99.90
19906;DHT22;10115;50.906;4.438;2024-01-15T04:22:35;1.80;99.90
19906;DHT22;10115;50.906;4.438;2024-01-15T04:25:01;1.90;99.90
19906;DHT22;10115;50.906;4.438;2024-01-15T04:27:27;1.70;99.90
19906;DHT22;10115;50.906;4.438;2024-01-15T04:29:52;1.70;99.90
19906;DHT22;10115;50.906;4.438;2024-01-15T04:32:18;1.80;99.90
19906;DHT22;10115;50.906;4.438;2024-01-15T04:34:44;1.70;99.90
19906;DHT22;10115;50.906;4.438;2024-01-15T04:37:10;1.70;99.90
19906;DHT22;10115;50.906;4.438;2024-01-15T04:39:35;1.70;99.90
19906;DHT22;10115;50.906;4.438;2024-01-15T04:42:01;1.70;99.90
19906;DHT22;10115;50.906;4.438;2024-01-15T04:44:27;1.70;99.90
19906;DHT22;10115;50.906;4.438;2024-01-15T04:46:53;1.70;99.90
19906;DHT22;10115;50.906;4.438;2024-01-15T04:49:18;1.70;99.90
19906;DHT22;10115;50.906;4.438;2024-01-15T04:51:44;1.70;99.90
19906;DHT22;10115;50.906;4.438;2024-01-15T04:54:09;1.70;99.90
19906;DHT22;10115;50.906;4.438;2024-01-15T04:56:35;1.70;99.90
19906;DHT22;10115;50.906;4.438;2024-01-15T04:59:01;1.70;99.90
19906;DHT22;10115;50.906;4.438;2024-01-15T05:01:31;1.70;99.90
19906;DHT22;10115;50.906;4.438;2024-01-15T05:03:58;1.90;99.90
19906;DHT22;10115;50.906;4.438;2024-01-15T05:06:23;1.80;99.90
19906;DHT22;10115;50.906;4.438;2024-01-15T05:08:49;1.90;99.90
19906;DHT22;10115;50.906;4.438;2024-01-15T05:11:14;1.90;99.90
19906;DHT22;10115;50.906;4.438;2024-01-15T05:13:40;1.90;99.90
19906;DHT22;10115;50.906;4.438;2024-01-15T05:16:06;1.90;99.90
19906;DHT22;10115;50.906;4.438;2024-01-15T05:18:31;1.90;99.90
19906;DHT22;10115;50.906;4.438;2024-01-15T05:20:57;1.90;99.90
19906;DHT22;10115;50.906;4.438;2024-01-15T05:23:23;1.90;99.90
19906;DHT22;10115;50.906;4.438;2024-01-15T05:25:48;1.90;99.90
19906;DHT22;10115;50.906;4.438;2024-01-15T05:28:14;1.80;99.90
19906;DHT22;10115;50.906;4.438;2024-01-15T05:30:40;1.80;99.90
19906;DHT22;10115;50.906;4.438;2024-01-15T05:33:06;1.70;99.90
19906;DHT22;10115;50.906;4.438;2024-01-15T05:35:33;1.70;99.90
19906;DHT22;10115;50.906;4.438;2024-01-15T05:37:59;1.70;99.90
19906;DHT22;10115;50.906;4.438;2024-01-15T05:40:24;1.70;99.90
19906;DHT22;10115;50.906;4.438;2024-01-15T05:42:50;1.60;99.90
19906;DHT22;10115;50.906;4.438;2024-01-15T05:45:16;1.60;99.90
19906;DHT22;10115;50.906;4.438;2024-01-15T05:47:42;1.60;99.90
19906;DHT22;10115;50.906;4.438;2024-01-15T05:50:08;1.60;99.90
19906;DHT22;10115;50.906;4.438;2024-01-15T05:52:34;1.50;99.90
19906;DHT22;10115;50.906;4.438;2024-01-15T05:54:59;1.50;99.90
19906;DHT22;10115;50.906;4.438;2024-01-15T05:57:25;1.50;99.90
19906;DHT22;10115;50.906;4.438;2024-01-15T05:59:51;1.40;99.90
19906;DHT22;10115;50.906;4.438;2024-01-15T06:02:16;1.40;99.90
19906;DHT22;10115;50.906;4.438;2024-01-15T06:04:42;1.40;99.90
19906;DHT22;10115;50.906;4.438;2024-01-15T06:07:08;1.40;99.90
19906;DHT22;10115;50.906;4.438;2024-01-15T06:09:33;1.30;99.90
19906;DHT22;10115;50.906;4.438;2024-01-15T06:11:59;1.30;99.90
19906;DHT22;10115;50.906;4.438;2024-01-15T06:14:24;1.40;99.90
19906;DHT22;10115;50.906;4.438;2024-01-15T06:16:50;1.40;99.90
19906;DHT22;10115;50.906;4.438;2024-01-15T06:19:16;1.50;99.90
19906;DHT22;10115;50.906;4.438;2024-01-15T06:21:41;1.50;99.90
19906;DHT22;10115;50.906;4.438;2024-01-15T06:24:07;1.50;99.90
19906;DHT22;10115;50.906;4.438;2024-01-15T06:26:35;1.60;99.90
19906;DHT22;10115;50.906;4.438;2024-01-15T06:29:01;1.60;99.90
19906;DHT22;10115;50.906;4.438;2024-01-15T06:31:28;1.50;99.90
19906;DHT22;10115;50.906;4.438;2024-01-15T06:33:55;1.60;99.90
19906;DHT22;10115;50.906;4.438;2024-01-15T06:36:20;1.60;99.90
19906;DHT22;10115;50.906;4.438;2024-01-15T06:38:46;1.50;99.90
19906;DHT22;10115;50.906;4.438;2024-01-15T06:41:12;1.50;99.90
19906;DHT22;10115;50.906;4.438;2024-01-15T06:43:37;1.50;99.90
19906;DHT22;10115;50.906;4.438;2024-01-15T06:46:03;1.50;99.90
19906;DHT22;10115;50.906;4.438;2024-01-15T06:48:29;1.50;99.90
19906;DHT22;10115;50.906;4.438;2024-01-15T06:50:54;1.50;99.90
19906;DHT22;10115;50.906;4.438;2024-01-15T06:53:20;1.50;99.90
19906;DHT22;10115;50.906;4.438;2024-01-15T06:55:46;1.40;99.90
19906;DHT22;10115;50.906;4.438;2024-01-15T06:58:12;1.40;99.90
19906;DHT22;10115;50.906;4.438;2024-01-15T07:00:37;1.40;99.90
19906;DHT22;10115;50.906;4.438;2024-01-15T07:03:03;1.40;99.90
19906;DHT22;10115;50.906;4.438;2024-01-15T07:05:29;1.40;99.90
19906;DHT22;10115;50.906;4.438;2024-01-15T07:07:56;1.40;99.90
19906;DHT22;10115;50.906;4.438;2024-01-15T07:10:21;1.30;99.90
19906;DHT22;10115;50.906;4.438;2024-01-15T07:12:47;1.30;99.90
19906;DHT22;10115;50.906;4.438;2024-01-15T07:15:13;1.20;99.90
19906;DHT22;10115;50.906;4.438;2024-01-15T07:17:38;1.30;99.90
19906;DHT22;10115;50.906;4.438;2024-01-15T07:20:06;1.20;99.90
19906;DHT22;10115;50.906;4.438;2024-01-15T07:22:33;1.20;99.90
19906;DHT22;10115;50.906;4.438;2024-01-15T07:24:59;1.20;99.90
19906;DHT22;10115;50.906;4.438;2024-01-15T07:27:25;1.20;99.90
19906;DHT22;10115;50.906;4.438;2024-01-15T07:29:50;1.20;99.90
19906;DHT22;10115;50.906;4.438;2024-01-15T07:32:16;1.10;99.90
19906;DHT22;10115;50.906;4.438;2024-01-15T07:34:42;1.10;99.90
19906;DHT22;10115;50.906;4.438;2024-01-15T07:37:08;1.10;99.90
19906;DHT22;10115;50.906;4.438;2024-01-15T07:39:33;1.20;99.90
19906;DHT22;10115;50.906;4.438;2024-01-15T07:42:00;1.10;99.90
19906;DHT22;10115;50.906;4.438;2024-01-15T07:44:26;1.20;99.90
19906;DHT22;10115;50.906;4.438;2024-01-15T07:46:51;1.30;99.90
19906;DHT22;10115;50.906;4.438;2024-01-15T07:49:17;1.30;99.90
19906;DHT22;10115;50.906;4.438;2024-01-15T07:51:43;1.40;99.90
19906;DHT22;10115;50.906;4.438;2024-01-15T07:54:12;1.40;99.90
19906;DHT22;10115;50.906;4.438;2024-01-15T07:56:57;1.40;99.90
19906;DHT22;10115;50.906;4.438;2024-01-15T07:59:23;1.40;99.90
19906;DHT22;10115;50.906;4.438;2024-01-15T08:01:49;1.40;99.90
19906;DHT22;10115;50.906;4.438;2024-01-15T08:04:15;1.50;99.90
19906;DHT22;10115;50.906;4.438;2024-01-15T08:06:40;1.50;99.90
19906;DHT22;10115;50.906;4.438;2024-01-15T08:09:06;1.50;99.90
19906;DHT22;10115;50.906;4.438;2024-01-15T08:11:34;1.50;99.90
19906;DHT22;10115;50.906;4.438;2024-01-15T08:14:00;1.50;99.90
19906;DHT22;10115;50.906;4.438;2024-01-15T08:16:25;1.60;99.90
19906;DHT22;10115;50.906;4.438;2024-01-15T08:18:53;1.60;99.90
19906;DHT22;10115;50.906;4.438;2024-01-15T08:21:18;1.70;99.90
19906;DHT22;10115;50.906;4.438;2024-01-15T08:23:44;1.80;99.90
19906;DHT22;10115;50.906;4.438;2024-01-15T08:26:10;1.80;99.90
19906;DHT22;10115;50.906;4.438;2024-01-15T08:28:36;1.80;99.90
19906;DHT22;10115;50.906;4.438;2024-01-15T08:31:02;1.80;99.90
19906;DHT22;10115;50.906;4.438;2024-01-15T08:33:28;1.90;99.90
19906;DHT22;10115;50.906;4.438;2024-01-15T08:35:54;2.00;99.90
19906;DHT22;10115;50.906;4.438;2024-01-15T08:38:20;1.90;99.90
19906;DHT22;10115;50.906;4.438;2024-01-15T08:40:46;1.90;99.90
19906;DHT22;10115;50.906;4.438;2024-01-15T08:43:12;1.90;99.90
19906;DHT22;10115;50.906;4.438;2024-01-15T08:45:38;1.90;99.90
19906;DHT22;10115;50.906;4.438;2024-01-15T08:48:04;1.90;99.90
19906;DHT22;10115;50.906;4.438;2024-01-15T08:50:30;1.90;99.90
19906;DHT22;10115;50.906;4.438;2024-01-15T08:52:57;1.90;99.90
19906;DHT22;10115;50.906;4.438;2024-01-15T08:55:23;1.90;99.90
19906;DHT22;10115;50.906;4.438;2024-01-15T08:57:49;1.90;99.90
19906;DHT22;10115;50.906;4.438;2024-01-15T09:00:15;1.90;99.90
19906;DHT22;10115;50.906;4.438;2024-01-15T09:02:41;1.90;99.90
19906;DHT22;10115;50.906;4.438;2024-01-15T09:05:07;1.90;99.90
19906;DHT22;10115;50.906;4.438;2024-01-15T09:07:33;1.90;99.90
19906;DHT22;10115;50.906;4.438;2024-01-15T09:09:58;1.90;99.90
19906;DHT22;10115;50.906;4.438;2024-01-15T09:12:25;1.90;99.90
19906;DHT22;10115;50.906;4.438;2024-01-15T09:14:51;2.00;99.90
19906;DHT22;10115;50.906;4.438;2024-01-15T09:17:17;1.90;99.90
19906;DHT22;10115;50.906;4.438;2024-01-15T09:19:43;1.90;99.90
19906;DHT22;10115;50.906;4.438;2024-01-15T09:22:09;1.90;99.90
19906;DHT22;10115;50.906;4.438;2024-01-15T09:24:36;1.90;99.90
19906;DHT22;10115;50.906;4.438;2024-01-15T09:27:02;2.00;99.90
19906;DHT22;10115;50.906;4.438;2024-01-15T09:29:28;2.10;99.90
19906;DHT22;10115;50.906;4.438;2024-01-15T09:31:54;2.20;99.90
19906;DHT22;10115;50.906;4.438;2024-01-15T09:34:19;2.20;99.90
19906;DHT22;10115;50.906;4.438;2024-01-15T09:36:45;2.30;99.90
19906;DHT22;10115;50.906;4.438;2024-01-15T09:39:10;2.30;99.90
19906;DHT22;10115;50.906;4.438;2024-01-15T09:41:39;2.30;99.90
19906;DHT22;10115;50.906;4.438;2024-01-15T09:44:05;2.30;99.90
19906;DHT22;10115;50.906;4.438;2024-01-15T09:46:33;2.40;99.90
19906;DHT22;10115;50.906;4.438;2024-01-15T09:48:59;2.40;99.90
19906;DHT22;10115;50.906;4.438;2024-01-15T09:51:25;2.50;99.90
19906;DHT22;10115;50.906;4.438;2024-01-15T09:53:51;2.50;99.90
19906;DHT22;10115;50.906;4.438;2024-01-15T09:56:17;2.60;99.90
19906;DHT22;10115;50.906;4.438;2024-01-15T09:58:44;2.60;99.90
19906;DHT22;10115;50.906;4.438;2024-01-15T10:01:11;2.70;99.90
19906;DHT22;10115;50.906;4.438;2024-01-15T10:03:37;2.70;99.90
19906;DHT22;10115;50.906;4.438;2024-01-15T10:06:05;2.80;99.90
19906;DHT22;10115;50.906;4.438;2024-01-15T10:08:34;2.80;99.90
19906;DHT22;10115;50.906;4.438;2024-01-15T10:11:01;2.80;99.90
19906;DHT22;10115;50.906;4.438;2024-01-15T10:13:28;2.90;99.90
19906;DHT22;10115;50.906;4.438;2024-01-15T10:15:55;3.00;99.90
19906;DHT22;10115;50.906;4.438;2024-01-15T10:18:21;2.90;99.90
19906;DHT22;10115;50.906;4.438;2024-01-15T10:20:47;2.80;99.90
19906;DHT22;10115;50.906;4.438;2024-01-15T10:23:14;2.90;99.90
19906;DHT22;10115;50.906;4.438;2024-01-15T10:25:42;2.90;99.90
19906;DHT22;10115;50.906;4.438;2024-01-15T10:28:07;2.90;99.90
19906;DHT22;10115;50.906;4.438;2024-01-15T10:30:34;3.60;99.90
19906;DHT22;10115;50.906;4.438;2024-01-15T10:33:01;4.50;99.90
19906;DHT22;10115;50.906;4.438;2024-01-15T10:35:31;4.50;99.90
19906;DHT22;10115;50.906;4.438;2024-01-15T10:37:58;3.60;99.90
19906;DHT22;10115;50.906;4.438;2024-01-15T10:40:23;3.20;99.90
19906;DHT22;10115;50.906;4.438;2024-01-15T10:42:49;3.20;99.90
19906;DHT22;10115;50.906;4.438;2024-01-15T10:45:15;3.20;99.90
19906;DHT22;10115;50.906;4.438;2024-01-15T10:47:41;3.20;99.90
19906;DHT22;10115;50.906;4.438;2024-01-15T10:50:08;3.30;99.90
19906;DHT22;10115;50.906;4.438;2024-01-15T10:52:39;3.30;6.10
19906;DHT22;10115;50.906;4.438;2024-01-15T10:55:11;3.40;1.00
19906;DHT22;10115;50.906;4.438;2024-01-15T10:57:38;3.40;1.00
19906;DHT22;10115;50.906;4.438;2024-01-15T11:00:07;3.40;1.00
19906;DHT22;10115;50.906;4.438;2024-01-15T11:02:36;3.50;1.00
19906;DHT22;10115;50.906;4.438;2024-01-15T11:05:02;3.60;99.90
19906;DHT22;10115;50.906;4.438;2024-01-15T11:07:30;3.50;1.00
19906;DHT22;10115;50.906;4.438;2024-01-15T11:09:56;3.60;99.90
19906;DHT22;10115;50.906;4.438;2024-01-15T11:12:24;3.60;99.90
19906;DHT22;10115;50.906;4.438;2024-01-15T11:14:50;3.90;1.00
19906;DHT22;10115;50.906;4.438;2024-01-15T11:17:17;3.80;1.00
19906;DHT22;10115;50.906;4.438;2024-01-15T11:19:48;3.70;1.00
19906;DHT22;10115;50.906;4.438;2024-01-15T11:25:12;3.60;1.00
19906;DHT22;10115;50.906;4.438;2024-01-15T11:27:51;3.60;1.00
19906;DHT22;10115;50.906;4.438;2024-01-15T11:30:18;3.60;99.90
19906;DHT22;10115;50.906;4.438;2024-01-15T11:32:47;3.50;94.70
19906;DHT22;10115;50.906;4.438;2024-01-15T11:35:13;3.60;1.00
19906;DHT22;10115;50.906;4.438;2024-01-15T11:40:22;3.60;1.00
19906;DHT22;10115;50.906;4.438;2024-01-15T11:42:49;3.50;99.90
19906;DHT22;10115;50.906;4.438;2024-01-15T11:45:21;3.70;99.90
19906;DHT22;10115;50.906;4.438;2024-01-15T11:50:27;3.80;1.00
19906;DHT22;10115;50.906;4.438;2024-01-15T11:53:00;3.90;99.90
19906;DHT22;10115;50.906;4.438;2024-01-15T11:55:29;3.80;99.90
19906;DHT22;10115;50.906;4.438;2024-01-15T11:57:57;3.80;29.70
19906;DHT22;10115;50.906;4.438;2024-01-15T12:00:26;3.70;1.00
19906;DHT22;10115;50.906;4.438;2024-01-15T12:02:51;3.70;1.00
19906;DHT22;10115;50.906;4.438;2024-01-15T12:05:19;3.70;1.00
19906;DHT22;10115;50.906;4.438;2024-01-15T12:07:46;3.70;1.00
19906;DHT22;10115;50.906;4.438;2024-01-15T12:10:20;3.70;1.00
19906;DHT22;10115;50.906;4.438;2024-01-15T12:13:00;3.60;1.00
19906;DHT22;10115;50.906;4.438;2024-01-15T12:15:29;3.70;1.00
19906;DHT22;10115;50.906;4.438;2024-01-15T12:17:56;3.70;1.00
19906;DHT22;10115;50.906;4.438;2024-01-15T12:20:25;3.70;1.00
19906;DHT22;10115;50.906;4.438;2024-01-15T12:22:51;3.70;67.60
19906;DHT22;10115;50.906;4.438;2024-01-15T12:25:17;3.70;94.60
19906;DHT22;10115;50.906;4.438;2024-01-15T12:27:43;3.80;57.50
19906;DHT22;10115;50.906;4.438;2024-01-15T12:30:13;4.00;11.70
19906;DHT22;10115;50.906;4.438;2024-01-15T12:32:40;4.00;1.00
19906;DHT22;10115;50.906;4.438;2024-01-15T12:35:07;4.00;61.30
19906;DHT22;10115;50.906;4.438;2024-01-15T12:37:35;4.00;99.90
19906;DHT22;10115;50.906;4.438;2024-01-15T12:40:02;4.00;99.90
19906;DHT22;10115;50.906;4.438;2024-01-15T12:42:30;3.90;99.90
19906;DHT22;10115;50.906;4.438;2024-01-15T12:44:57;3.90;1.00
19906;DHT22;10115;50.906;4.438;2024-01-15T12:47:22;3.80;99.90
19906;DHT22;10115;50.906;4.438;2024-01-15T12:49:48;3.40;99.90
19906;DHT22;10115;50.906;4.438;2024-01-15T12:52:19;3.30;1.00
19906;DHT22;10115;50.906;4.438;2024-01-15T12:54:45;3.30;1.00
19906;DHT22;10115;50.906;4.438;2024-01-15T12:57:11;3.30;1.00
19906;DHT22;10115;50.906;4.438;2024-01-15T12:59:36;3.30;1.00
19906;DHT22;10115;50.906;4.438;2024-01-15T13:02:02;3.30;1.00
19906;DHT22;10115;50.906;4.438;2024-01-15T13:04:28;3.30;1.00
19906;DHT22;10115;50.906;4.438;2024-01-15T13:06:55;3.40;1.00
19906;DHT22;10115;50.906;4.438;2024-01-15T13:09:20;3.50;1.00
19906;DHT22;10115;50.906;4.438;2024-01-15T13:11:46;3.60;1.00
19906;DHT22;10115;50.906;4.438;2024-01-15T13:14:12;3.60;1.00
19906;DHT22;10115;50.906;4.438;2024-01-15T13:16:41;3.60;1.00
19906;DHT22;10115;50.906;4.438;2024-01-15T13:19:10;3.60;1.00
19906;DHT22;10115;50.906;4.438;2024-01-15T13:21:42;3.50;1.00
19906;DHT22;10115;50.906;4.438;2024-01-15T13:24:07;3.50;1.00
19906;DHT22;10115;50.906;4.438;2024-01-15T13:26:34;3.40;1.00
19906;DHT22;10115;50.906;4.438;2024-01-15T13:29:00;3.50;16.40
19906;DHT22;10115;50.906;4.438;2024-01-15T13:31:27;3.50;86.40
19906;DHT22;10115;50.906;4.438;2024-01-15T13:33:53;3.60;99.90
19906;DHT22;10115;50.906;4.438;2024-01-15T13:36:20;3.70;99.90
19906;DHT22;10115;50.906;4.438;2024-01-15T13:38:46;3.60;99.90
19906;DHT22;10115;50.906;4.438;2024-01-15T13:41:12;3.60;99.90
19906;DHT22;10115;50.906;4.438;2024-01-15T13:43:38;3.40;99.90
19906;DHT22;10115;50.906;4.438;2024-01-15T13:46:04;3.30;99.90
19906;DHT22;10115;50.906;4.438;2024-01-15T13:48:30;3.10;99.90
19906;DHT22;10115;50.906;4.438;2024-01-15T13:50:57;2.50;99.90
19906;DHT22;10115;50.906;4.438;2024-01-15T13:53:23;2.00;99.90
19906;DHT22;10115;50.906;4.438;2024-01-15T13:55:49;1.60;99.90
19906;DHT22;10115;50.906;4.438;2024-01-15T13:58:14;1.30;99.90
19906;DHT22;10115;50.906;4.438;2024-01-15T14:00:40;1.20;99.90
19906;DHT22;10115;50.906;4.438;2024-01-15T14:03:06;1.10;99.90
19906;DHT22;10115;50.906;4.438;2024-01-15T14:05:32;1.20;99.90
19906;DHT22;10115;50.906;4.438;2024-01-15T14:07:57;1.20;99.90
19906;DHT22;10115;50.906;4.438;2024-01-15T14:10:24;1.20;99.90
19906;DHT22;10115;50.906;4.438;2024-01-15T14:12:49;1.20;99.90
19906;DHT22;10115;50.906;4.438;2024-01-15T14:15:15;1.30;99.90
19906;DHT22;10115;50.906;4.438;2024-01-15T14:17:41;1.40;99.90
19906;DHT22;10115;50.906;4.438;2024-01-15T14:20:07;1.40;99.90
19906;DHT22;10115;50.906;4.438;2024-01-15T14:22:34;1.40;99.90
19906;DHT22;10115;50.906;4.438;2024-01-15T14:25:00;1.50;99.90
19906;DHT22;10115;50.906;4.438;2024-01-15T14:27:26;1.50;99.90
19906;DHT22;10115;50.906;4.438;2024-01-15T14:29:51;1.50;99.90
19906;DHT22;10115;50.906;4.438;2024-01-15T14:32:17;1.30;99.90
19906;DHT22;10115;50.906;4.438;2024-01-15T14:34:43;1.20;99.90
19906;DHT22;10115;50.906;4.438;2024-01-15T14:37:09;1.20;99.90
19906;DHT22;10115;50.906;4.438;2024-01-15T14:39:35;1.20;99.90
19906;DHT22;10115;50.906;4.438;2024-01-15T14:42:01;1.30;99.90
19906;DHT22;10115;50.906;4.438;2024-01-15T14:44:26;1.20;99.90
19906;DHT22;10115;50.906;4.438;2024-01-15T14:46:54;1.30;99.90
19906;DHT22;10115;50.906;4.438;2024-01-15T14:49:20;1.30;99.90
19906;DHT22;10115;50.906;4.438;2024-01-15T14:51:45;1.40;99.90
19906;DHT22;10115;50.906;4.438;2024-01-15T14:54:11;1.30;99.90
19906;DHT22;10115;50.906;4.438;2024-01-15T14:56:37;1.30;99.90
19906;DHT22;10115;50.906;4.438;2024-01-15T14:59:02;1.40;99.90
19906;DHT22;10115;50.906;4.438;2024-01-15T15:01:28;1.30;99.90
19906;DHT22;10115;50.906;4.438;2024-01-15T15:03:53;1.30;99.90
19906;DHT22;10115;50.906;4.438;2024-01-15T15:06:19;1.40;99.90
19906;DHT22;10115;50.906;4.438;2024-01-15T15:08:46;1.50;99.90
19906;DHT22;10115;50.906;4.438;2024-01-15T15:11:12;1.40;99.90
19906;DHT22;10115;50.906;4.438;2024-01-15T15:13:39;1.40;99.90
19906;DHT22;10115;50.906;4.438;2024-01-15T15:16:05;1.40;99.90
19906;DHT22;10115;50.906;4.438;2024-01-15T15:18:31;1.50;99.90
19906;DHT22;10115;50.906;4.438;2024-01-15T15:20:57;1.50;99.90
19906;DHT22;10115;50.906;4.438;2024-01-15T15:23:22;1.50;99.90
19906;DHT22;10115;50.906;4.438;2024-01-15T15:25:48;1.50;99.90
19906;DHT22;10115;50.906;4.438;2024-01-15T15:28:14;1.50;99.90
19906;DHT22;10115;50.906;4.438;2024-01-15T15:30:41;1.50;99.90
19906;DHT22;10115;50.906;4.438;2024-01-15T15:33:07;1.50;99.90
19906;DHT22;10115;50.906;4.438;2024-01-15T15:35:33;1.50;99.90
19906;DHT22;10115;50.906;4.438;2024-01-15T15:37:58;1.50;99.90
19906;DHT22;10115;50.906;4.438;2024-01-15T15:40:24;1.50;99.90
19906;DHT22;10115;50.906;4.438;2024-01-15T15:42:50;1.60;99.90
19906;DHT22;10115;50.906;4.438;2024-01-15T15:45:16;1.50;99.90
19906;DHT22;10115;50.906;4.438;2024-01-15T15:47:42;1.60;99.90
19906;DHT22;10115;50.906;4.438;2024-01-15T15:50:08;1.60;99.90